Terminal Aerodrome Forecast
Issued by NWS

Home | Current Version | Previous Version | Graphics & Text | Print | Product List | Glossary On
Versions: 1 2 3 4 5 6 7 8 9 10 11 12 13 14 15 16 17 18 19
454
FTUS42 KMHX 241120
TAFOAJ
TAF
KOAJ 241120Z 2412/2512 11014G24KT 2SM +RA VCTS OVC010CB
      TEMPO 2413/2417 BKN008CB
     FM241800 13012G26KT 6SM -RA VCTS BKN010CB
     FM250000 16009KT P6SM BKN250
      AMD LTD TO CLD VIS AND WIND=

USA.gov is the U.S. government's official web portal to all federal, state and local government web resources and services.